sensor_id;sensor_type;location;lat;lon;timestamp;pressure;altitude;pressure_sealevel;temperature;humidity
73941;BME280;62294;48.554;10.202;2022-10-03T00:02:35;96842.13;;;6.69;95.55
73941;BME280;62294;48.554;10.202;2022-10-03T00:19:02;96858.81;;;6.69;95.09
73941;BME280;62294;48.554;10.202;2022-10-03T00:26:52;96853.63;;;6.53;95.00
73941;BME280;62294;48.554;10.202;2022-10-03T00:31:57;96853.56;;;6.38;94.79
73941;BME280;62294;48.554;10.202;2022-10-03T00:42:56;96860.31;;;6.10;94.59
73941;BME280;62294;48.554;10.202;2022-10-03T00:45:31;96866.09;;;6.06;94.76
73941;BME280;62294;48.554;10.202;2022-10-03T00:58:50;96871.69;;;6.11;94.73
73941;BME280;62294;48.554;10.202;2022-10-03T01:01:29;96877.47;;;6.06;94.99
73941;BME280;62294;48.554;10.202;2022-10-03T01:04:08;96875.69;;;5.99;94.35
73941;BME280;62294;48.554;10.202;2022-10-03T01:09:50;96874.72;;;5.84;94.24
73941;BME280;62294;48.554;10.202;2022-10-03T01:12:26;96875.69;;;5.83;95.38
73941;BME280;62294;48.554;10.202;2022-10-03T01:15:07;96884.94;;;5.79;95.37
73941;BME280;62294;48.554;10.202;2022-10-03T01:18:00;96886.56;;;5.80;94.66
73941;BME280;62294;48.554;10.202;2022-10-03T01:34:41;96905.94;;;5.56;94.45
73941;BME280;62294;48.554;10.202;2022-10-03T01:37:36;96902.97;;;5.51;95.15
73941;BME280;62294;48.554;10.202;2022-10-03T01:40:22;96898.84;;;5.48;94.65
73941;BME280;62294;48.554;10.202;2022-10-03T01:43:04;96891.44;;;5.44;94.75
73941;BME280;62294;48.554;10.202;2022-10-03T01:48:11;96886.16;;;5.44;94.29
73941;BME280;62294;48.554;10.202;2022-10-03T01:51:06;96897.88;;;5.41;95.10
73941;BME280;62294;48.554;10.202;2022-10-03T01:53:47;96890.59;;;5.43;94.71
73941;BME280;62294;48.554;10.202;2022-10-03T02:01:57;96895.09;;;5.43;95.08
73941;BME280;62294;48.554;10.202;2022-10-03T02:05:33;96891.44;;;5.44;94.35
73941;BME280;62294;48.554;10.202;2022-10-03T02:07:39;96890.63;;;5.35;93.91
73941;BME280;62294;48.554;10.202;2022-10-03T02:10:25;96888.97;;;5.34;93.91
73941;BME280;62294;48.554;10.202;2022-10-03T02:13:23;96902.16;;;5.34;95.29
73941;BME280;62294;48.554;10.202;2022-10-03T02:16:06;96910.22;;;5.33;94.34
73941;BME280;62294;48.554;10.202;2022-10-03T02:18:57;96919.31;;;5.22;94.59
73941;BME280;62294;48.554;10.202;2022-10-03T02:21:28;96916.34;;;5.17;93.97
73941;BME280;62294;48.554;10.202;2022-10-03T02:24:17;96923.25;;;5.10;94.13
73941;BME280;62294;48.554;10.202;2022-10-03T02:27:06;96931.16;;;5.10;94.83
73941;BME280;62294;48.554;10.202;2022-10-03T02:38:08;96935.59;;;5.18;95.26
73941;BME280;62294;48.554;10.202;2022-10-03T02:41:15;96923.91;;;5.28;94.33
73941;BME280;62294;48.554;10.202;2022-10-03T03:09:51;96947.44;;;5.30;94.16
73941;BME280;62294;48.554;10.202;2022-10-03T03:12:38;96946.97;;;5.26;94.42
73941;BME280;62294;48.554;10.202;2022-10-03T03:32:19;96949.25;;;5.86;95.83
73941;BME280;62294;48.554;10.202;2022-10-03T03:35:11;96947.94;;;5.98;94.62
73941;BME280;62294;48.554;10.202;2022-10-03T03:37:56;96953.34;;;5.96;95.38
73941;BME280;62294;48.554;10.202;2022-10-03T03:52:21;96939.44;;;6.18;95.47
73941;BME280;62294;48.554;10.202;2022-10-03T03:55:05;96937.59;;;6.27;95.07
73941;BME280;62294;48.554;10.202;2022-10-03T03:57:56;96931.31;;;6.36;95.42
73941;BME280;62294;48.554;10.202;2022-10-03T04:06:04;96939.66;;;6.09;94.49
73941;BME280;62294;48.554;10.202;2022-10-03T04:14:59;96939.34;;;5.80;95.45
73941;BME280;62294;48.554;10.202;2022-10-03T04:17:49;96940.00;;;5.73;94.79
73941;BME280;62294;48.554;10.202;2022-10-03T04:31:47;96945.59;;;6.03;96.08
73941;BME280;62294;48.554;10.202;2022-10-03T04:37:10;96944.81;;;5.86;95.76
73941;BME280;62294;48.554;10.202;2022-10-03T04:43:13;96961.44;;;5.87;95.58
73941;BME280;62294;48.554;10.202;2022-10-03T04:45:56;96953.84;;;5.75;95.10
73941;BME280;62294;48.554;10.202;2022-10-03T04:48:35;96951.41;;;5.74;95.64
73941;BME280;62294;48.554;10.202;2022-10-03T04:56:47;96960.44;;;5.80;94.88
73941;BME280;62294;48.554;10.202;2022-10-03T05:02:34;96956.50;;;5.75;95.41
73941;BME280;62294;48.554;10.202;2022-10-03T05:05:33;96963.75;;;5.73;94.77
73941;BME280;62294;48.554;10.202;2022-10-03T05:08:15;96965.06;;;5.61;94.68
73941;BME280;62294;48.554;10.202;2022-10-03T05:11:10;96961.13;;;5.57;95.22
73941;BME280;62294;48.554;10.202;2022-10-03T05:21:53;96971.03;;;5.31;94.64
73941;BME280;62294;48.554;10.202;2022-10-03T05:25:08;96969.03;;;5.25;95.16
73941;BME280;62294;48.554;10.202;2022-10-03T05:30:17;96979.91;;;5.22;95.84
73941;BME280;62294;48.554;10.202;2022-10-03T05:32:59;96994.09;;;5.29;94.63
73941;BME280;62294;48.554;10.202;2022-10-03T05:36:14;96998.69;;;5.27;94.79
73941;BME280;62294;48.554;10.202;2022-10-03T05:41:33;96995.41;;;5.33;94.89
73941;BME280;62294;48.554;10.202;2022-10-03T05:44:07;96996.22;;;5.42;95.19
73941;BME280;62294;48.554;10.202;2022-10-03T05:46:40;96989.31;;;5.49;95.31
73941;BME280;62294;48.554;10.202;2022-10-03T05:54:49;97002.47;;;5.73;94.68
73941;BME280;62294;48.554;10.202;2022-10-03T05:57:51;97002.31;;;5.83;94.24
73941;BME280;62294;48.554;10.202;2022-10-03T06:06:18;97016.50;;;6.06;93.75
73941;BME280;62294;48.554;10.202;2022-10-03T06:11:38;97020.59;;;6.24;93.60
73941;BME280;62294;48.554;10.202;2022-10-03T06:14:30;97015.66;;;6.29;93.79
73941;BME280;62294;48.554;10.202;2022-10-03T06:17:13;97026.13;;;6.54;93.85
73941;BME280;62294;48.554;10.202;2022-10-03T06:25:42;97030.34;;;7.63;93.76
73941;BME280;62294;48.554;10.202;2022-10-03T06:42:45;97041.09;;;10.02;87.73
73941;BME280;62294;48.554;10.202;2022-10-03T06:56:47;97043.88;;;12.82;82.38
73941;BME280;62294;48.554;10.202;2022-10-03T06:59:26;97044.38;;;13.30;81.18
73941;BME280;62294;48.554;10.202;2022-10-03T07:02:38;97043.91;;;13.46;80.36
73941;BME280;62294;48.554;10.202;2022-10-03T07:11:20;97053.28;;;14.99;75.90
73941;BME280;62294;48.554;10.202;2022-10-03T07:16:48;97053.78;;;15.07;74.04
73941;BME280;62294;48.554;10.202;2022-10-03T07:31:27;97071.28;;;18.02;66.48
73941;BME280;62294;48.554;10.202;2022-10-03T07:37:16;97069.06;;;19.70;65.84
73941;BME280;62294;48.554;10.202;2022-10-03T07:43:09;97079.53;;;16.63;64.36
73941;BME280;62294;48.554;10.202;2022-10-03T07:46:04;97083.25;;;15.43;69.39
73941;BME280;62294;48.554;10.202;2022-10-03T08:08:12;97101.34;;;16.55;69.48
73941;BME280;62294;48.554;10.202;2022-10-03T08:19:43;97106.69;;;13.62;72.99
73941;BME280;62294;48.554;10.202;2022-10-03T08:35:59;97097.00;;;11.86;79.21
73941;BME280;62294;48.554;10.202;2022-10-03T08:55:12;97096.75;;;14.94;69.53
73941;BME280;62294;48.554;10.202;2022-10-03T09:38:06;97100.41;;;14.26;70.95
73941;BME280;62294;48.554;10.202;2022-10-03T09:49:16;97080.31;;;18.41;54.16
73941;BME280;62294;48.554;10.202;2022-10-03T09:52:21;97077.41;;;18.59;54.79
73941;BME280;62294;48.554;10.202;2022-10-03T09:55:01;97071.94;;;16.60;59.36
73941;BME280;62294;48.554;10.202;2022-10-03T10:00:32;97079.47;;;17.67;57.18
73941;BME280;62294;48.554;10.202;2022-10-03T10:06:05;97087.09;;;17.36;55.55
73941;BME280;62294;48.554;10.202;2022-10-03T10:14:18;97078.50;;;15.45;61.33
73941;BME280;62294;48.554;10.202;2022-10-03T10:25:58;97064.91;;;17.29;54.09
73941;BME280;62294;48.554;10.202;2022-10-03T10:45:37;97068.19;;;22.07;42.29
73941;BME280;62294;48.554;10.202;2022-10-03T11:10:55;97085.28;;;15.96;58.24
73941;BME280;62294;48.554;10.202;2022-10-03T11:13:50;97075.59;;;16.24;57.07
73941;BME280;62294;48.554;10.202;2022-10-03T11:16:49;97076.41;;;15.95;56.90
73941;BME280;62294;48.554;10.202;2022-10-03T11:22:43;97080.41;;;15.75;58.26
73941;BME280;62294;48.554;10.202;2022-10-03T11:31:38;97081.19;;;15.93;56.57
73941;BME280;62294;48.554;10.202;2022-10-03T11:37:33;97077.59;;;15.70;58.25
73941;BME280;62294;48.554;10.202;2022-10-03T11:43:12;97067.63;;;16.18;55.76
73941;BME280;62294;48.554;10.202;2022-10-03T11:45:58;97066.59;;;16.19;55.86
73941;BME280;62294;48.554;10.202;2022-10-03T11:48:50;97071.19;;;15.16;58.52
73941;BME280;62294;48.554;10.202;2022-10-03T11:57:06;97062.34;;;15.52;57.60
73941;BME280;62294;48.554;10.202;2022-10-03T12:03:26;97059.50;;;15.29;57.09
73941;BME280;62294;48.554;10.202;2022-10-03T12:05:50;97052.78;;;15.44;57.40
73941;BME280;62294;48.554;10.202;2022-10-03T12:13:41;97046.78;;;15.24;58.45
73941;BME280;62294;48.554;10.202;2022-10-03T12:16:27;97053.09;;;14.93;57.72
73941;BME280;62294;48.554;10.202;2022-10-03T12:19:04;97049.25;;;14.65;60.27
73941;BME280;62294;48.554;10.202;2022-10-03T12:21:53;97046.31;;;14.23;60.62
73941;BME280;62294;48.554;10.202;2022-10-03T12:24:28;97045.44;;;14.79;60.56
73941;BME280;62294;48.554;10.202;2022-10-03T12:29:32;97048.59;;;15.48;58.48
73941;BME280;62294;48.554;10.202;2022-10-03T12:32:27;97037.69;;;15.43;56.60
73941;BME280;62294;48.554;10.202;2022-10-03T12:35:07;97042.72;;;15.88;57.30
73941;BME280;62294;48.554;10.202;2022-10-03T12:37:41;97040.75;;;15.95;56.28
73941;BME280;62294;48.554;10.202;2022-10-03T12:40:32;97047.59;;;15.43;56.39
73941;BME280;62294;48.554;10.202;2022-10-03T12:43:33;97049.19;;;15.14;54.99
73941;BME280;62294;48.554;10.202;2022-10-03T12:46:27;97040.75;;;15.29;56.51
73941;BME280;62294;48.554;10.202;2022-10-03T12:49:33;97052.72;;;15.08;58.23
73941;BME280;62294;48.554;10.202;2022-10-03T12:52:26;97047.31;;;14.54;59.54
73941;BME280;62294;48.554;10.202;2022-10-03T12:55:22;97045.81;;;14.82;59.72
73941;BME280;62294;48.554;10.202;2022-10-03T12:58:04;97041.72;;;15.52;58.53
73941;BME280;62294;48.554;10.202;2022-10-03T13:01:01;97046.50;;;15.50;58.46
73941;BME280;62294;48.554;10.202;2022-10-03T13:03:48;97040.81;;;14.86;58.88
73941;BME280;62294;48.554;10.202;2022-10-03T13:07:02;97033.53;;;14.75;59.07
73941;BME280;62294;48.554;10.202;2022-10-03T13:09:46;97035.72;;;14.42;60.09
73941;BME280;62294;48.554;10.202;2022-10-03T13:12:37;97027.97;;;14.52;60.71
73941;BME280;62294;48.554;10.202;2022-10-03T13:15:32;97036.72;;;14.41;58.99
73941;BME280;62294;48.554;10.202;2022-10-03T13:24:01;97017.91;;;15.08;58.74
73941;BME280;62294;48.554;10.202;2022-10-03T13:26:51;97013.63;;;15.07;57.19
73941;BME280;62294;48.554;10.202;2022-10-03T13:32:33;97023.31;;;15.44;55.75
73941;BME280;62294;48.554;10.202;2022-10-03T13:40:43;97017.94;;;15.44;55.03
73941;BME280;62294;48.554;10.202;2022-10-03T13:43:20;97020.16;;;15.47;55.76
73941;BME280;62294;48.554;10.202;2022-10-03T13:45:49;97024.84;;;15.52;54.58
73941;BME280;62294;48.554;10.202;2022-10-03T13:48:20;97020.59;;;15.63;53.53
73941;BME280;62294;48.554;10.202;2022-10-03T13:51:02;97015.22;;;15.63;52.15
73941;BME280;62294;48.554;10.202;2022-10-03T13:56:24;97004.03;;;15.00;53.92
73941;BME280;62294;48.554;10.202;2022-10-03T13:59:28;97014.66;;;15.24;53.69
73941;BME280;62294;48.554;10.202;2022-10-03T14:10:13;96998.13;;;15.45;57.41
73941;BME280;62294;48.554;10.202;2022-10-03T14:15:47;97010.63;;;14.97;57.52
73941;BME280;62294;48.554;10.202;2022-10-03T14:26:48;96996.53;;;13.98;60.36
73941;BME280;62294;48.554;10.202;2022-10-03T14:29:25;97009.59;;;13.81;59.98
73941;BME280;62294;48.554;10.202;2022-10-03T14:32:12;96999.78;;;13.75;60.36
73941;BME280;62294;48.554;10.202;2022-10-03T14:35:33;97003.59;;;13.55;61.18
73941;BME280;62294;48.554;10.202;2022-10-03T14:41:17;97002.00;;;13.47;61.25
73941;BME280;62294;48.554;10.202;2022-10-03T14:43:53;97008.28;;;13.28;61.63
73941;BME280;62294;48.554;10.202;2022-10-03T14:46:23;96999.13;;;13.42;61.81
73941;BME280;62294;48.554;10.202;2022-10-03T14:48:58;97006.63;;;13.27;63.51
73941;BME280;62294;48.554;10.202;2022-10-03T14:51:36;97006.63;;;13.27;63.00
73941;BME280;62294;48.554;10.202;2022-10-03T14:54:27;97003.41;;;13.12;62.92
73941;BME280;62294;48.554;10.202;2022-10-03T14:56:53;96995.91;;;13.33;63.39
73941;BME280;62294;48.554;10.202;2022-10-03T14:59:27;96991.63;;;13.64;62.44
73941;BME280;62294;48.554;10.202;2022-10-03T15:01:56;96989.06;;;13.44;62.45
73941;BME280;62294;48.554;10.202;2022-10-03T15:06:55;97002.28;;;13.26;62.60
73941;BME280;62294;48.554;10.202;2022-10-03T15:09:30;97004.09;;;13.38;63.66
73941;BME280;62294;48.554;10.202;2022-10-03T15:12:18;97003.75;;;13.22;63.69
73941;BME280;62294;48.554;10.202;2022-10-03T15:14:55;96993.94;;;13.16;64.88
73941;BME280;62294;48.554;10.202;2022-10-03T15:17:29;96989.50;;;12.83;65.38
73941;BME280;62294;48.554;10.202;2022-10-03T15:19:58;96987.25;;;12.80;65.64
73941;BME280;62294;48.554;10.202;2022-10-03T15:22:34;96987.66;;;12.84;64.78
73941;BME280;62294;48.554;10.202;2022-10-03T15:27:33;96991.31;;;12.90;65.69
73941;BME280;62294;48.554;10.202;2022-10-03T15:30:04;96984.94;;;12.97;65.88
73941;BME280;62294;48.554;10.202;2022-10-03T15:32:34;96981.22;;;13.11;65.04
73941;BME280;62294;48.554;10.202;2022-10-03T15:35:04;96981.88;;;13.07;65.55
73941;BME280;62294;48.554;10.202;2022-10-03T15:37:35;96980.50;;;12.71;64.56
73941;BME280;62294;48.554;10.202;2022-10-03T15:40:23;96990.38;;;12.64;64.39
73941;BME280;62294;48.554;10.202;2022-10-03T15:43:13;96981.00;;;12.42;64.19
73941;BME280;62294;48.554;10.202;2022-10-03T15:45:43;96982.44;;;12.38;65.67
73941;BME280;62294;48.554;10.202;2022-10-03T15:48:15;96979.38;;;12.28;66.71
73941;BME280;62294;48.554;10.202;2022-10-03T15:50:49;96983.44;;;12.37;66.66
73941;BME280;62294;48.554;10.202;2022-10-03T15:53:33;96986.34;;;12.29;66.97
73941;BME280;62294;48.554;10.202;2022-10-03T15:56:12;96977.34;;;12.17;69.15
73941;BME280;62294;48.554;10.202;2022-10-03T15:59:02;96978.16;;;11.98;69.59
73941;BME280;62294;48.554;10.202;2022-10-03T16:01:36;96986.75;;;11.87;70.28
73941;BME280;62294;48.554;10.202;2022-10-03T16:04:16;96982.25;;;11.68;71.45
73941;BME280;62294;48.554;10.202;2022-10-03T16:06:57;96988.31;;;11.49;71.87
73941;BME280;62294;48.554;10.202;2022-10-03T16:15:14;96990.63;;;11.04;75.39
73941;BME280;62294;48.554;10.202;2022-10-03T16:17:55;96989.34;;;10.87;76.75
73941;BME280;62294;48.554;10.202;2022-10-03T16:23:13;96981.44;;;10.66;77.68
73941;BME280;62294;48.554;10.202;2022-10-03T16:28:15;96974.25;;;10.53;79.01
73941;BME280;62294;48.554;10.202;2022-10-03T16:31:01;96973.25;;;10.61;79.49
73941;BME280;62294;48.554;10.202;2022-10-03T16:33:39;96981.44;;;10.59;79.34
73941;BME280;62294;48.554;10.202;2022-10-03T16:36:09;96994.56;;;10.67;78.67
73941;BME280;62294;48.554;10.202;2022-10-03T16:38:51;96989.59;;;10.58;78.86
73941;BME280;62294;48.554;10.202;2022-10-03T16:41:25;96982.81;;;10.49;79.25
73941;BME280;62294;48.554;10.202;2022-10-03T16:43:58;96989.44;;;10.32;80.26
73941;BME280;62294;48.554;10.202;2022-10-03T16:46:29;96989.47;;;10.11;81.83
73941;BME280;62294;48.554;10.202;2022-10-03T16:48:59;96990.22;;;10.05;81.67
73941;BME280;62294;48.554;10.202;2022-10-03T16:52:01;96997.31;;;9.97;81.99
73941;BME280;62294;48.554;10.202;2022-10-03T16:54:29;96996.78;;;9.81;82.71
73941;BME280;62294;48.554;10.202;2022-10-03T16:57:02;96997.09;;;9.71;83.08
73941;BME280;62294;48.554;10.202;2022-10-03T16:59:31;97002.72;;;9.62;83.59
73941;BME280;62294;48.554;10.202;2022-10-03T17:02:09;97000.19;;;9.54;83.28
73941;BME280;62294;48.554;10.202;2022-10-03T17:04:48;96996.22;;;9.43;83.34
73941;BME280;62294;48.554;10.202;2022-10-03T17:07:25;96994.69;;;9.34;84.08
73941;BME280;62294;48.554;10.202;2022-10-03T17:09:56;96994.56;;;9.21;84.05
73941;BME280;62294;48.554;10.202;2022-10-03T17:12:27;97003.22;;;9.15;84.84
73941;BME280;62294;48.554;10.202;2022-10-03T17:14:57;96997.69;;;9.10;84.02
73941;BME280;62294;48.554;10.202;2022-10-03T17:17:46;96996.16;;;9.01;84.77
73941;BME280;62294;48.554;10.202;2022-10-03T17:20:19;97002.75;;;8.90;84.42
73941;BME280;62294;48.554;10.202;2022-10-03T17:22:54;97000.38;;;8.81;84.85
73941;BME280;62294;48.554;10.202;2022-10-03T17:25:47;96996.94;;;8.66;85.47
73941;BME280;62294;48.554;10.202;2022-10-03T17:28:45;96990.63;;;8.52;85.26
73941;BME280;62294;48.554;10.202;2022-10-03T17:31:24;96996.38;;;8.41;85.52
73941;BME280;62294;48.554;10.202;2022-10-03T17:34:03;96991.00;;;8.34;86.14
73941;BME280;62294;48.554;10.202;2022-10-03T17:36:58;96998.03;;;8.27;85.69
73941;BME280;62294;48.554;10.202;2022-10-03T17:39:53;97000.91;;;8.18;86.61
73941;BME280;62294;48.554;10.202;2022-10-03T17:48:09;97002.22;;;7.99;86.76
73941;BME280;62294;48.554;10.202;2022-10-03T17:50:51;97002.84;;;7.86;86.51
73941;BME280;62294;48.554;10.202;2022-10-03T17:53:25;97002.75;;;7.80;87.45
73941;BME280;62294;48.554;10.202;2022-10-03T17:56:04;97002.50;;;7.67;87.10
73941;BME280;62294;48.554;10.202;2022-10-03T17:58:32;96996.28;;;7.60;87.79
73941;BME280;62294;48.554;10.202;2022-10-03T18:01:11;96997.84;;;7.54;88.15
73941;BME280;62294;48.554;10.202;2022-10-03T18:03:55;96993.38;;;7.55;87.38
73941;BME280;62294;48.554;10.202;2022-10-03T18:11:37;97003.03;;;7.40;87.39
73941;BME280;62294;48.554;10.202;2022-10-03T18:22:29;96997.09;;;7.15;88.31
73941;BME280;62294;48.554;10.202;2022-10-03T18:28:27;96991.56;;;7.02;88.36
73941;BME280;62294;48.554;10.202;2022-10-03T18:30:59;96997.41;;;6.89;87.97
73941;BME280;62294;48.554;10.202;2022-10-03T18:33:44;97003.72;;;6.80;88.42
73941;BME280;62294;48.554;10.202;2022-10-03T18:36:26;97000.09;;;6.81;88.92
73941;BME280;62294;48.554;10.202;2022-10-03T18:38:58;96989.03;;;6.78;87.30
73941;BME280;62294;48.554;10.202;2022-10-03T18:41:29;96997.84;;;6.70;88.79
73941;BME280;62294;48.554;10.202;2022-10-03T18:43:58;96993.91;;;6.66;89.52
73941;BME280;62294;48.554;10.202;2022-10-03T18:46:38;96999.84;;;6.60;89.19
73941;BME280;62294;48.554;10.202;2022-10-03T18:52:07;96992.31;;;6.49;89.63
73941;BME280;62294;48.554;10.202;2022-10-03T18:57:33;96997.97;;;6.38;89.71
73941;BME280;62294;48.554;10.202;2022-10-03T19:00:19;96990.72;;;6.32;90.29
73941;BME280;62294;48.554;10.202;2022-10-03T19:02:56;96986.94;;;6.26;89.17
73941;BME280;62294;48.554;10.202;2022-10-03T19:05:30;96989.06;;;6.23;89.47
73941;BME280;62294;48.554;10.202;2022-10-03T19:08:18;96985.50;;;6.16;90.07
73941;BME280;62294;48.554;10.202;2022-10-03T19:10:51;96988.78;;;6.10;89.31
73941;BME280;62294;48.554;10.202;2022-10-03T19:13:26;96975.25;;;6.05;89.65
73941;BME280;62294;48.554;10.202;2022-10-03T19:16:12;96987.81;;;6.03;89.92
73941;BME280;62294;48.554;10.202;2022-10-03T19:19:01;96986.97;;;6.10;89.56
73941;BME280;62294;48.554;10.202;2022-10-03T19:21:33;96988.16;;;6.00;88.93
73941;BME280;62294;48.554;10.202;2022-10-03T19:24:05;96991.78;;;5.99;89.35
73941;BME280;62294;48.554;10.202;2022-10-03T19:26:43;96980.56;;;5.97;88.89
73941;BME280;62294;48.554;10.202;2022-10-03T19:29:19;96982.56;;;5.87;89.29
73941;BME280;62294;48.554;10.202;2022-10-03T19:32:13;96987.81;;;5.79;89.36
73941;BME280;62294;48.554;10.202;2022-10-03T19:34:46;96988.66;;;5.79;89.49
73941;BME280;62294;48.554;10.202;2022-10-03T19:39:57;96988.16;;;5.67;89.44
73941;BME280;62294;48.554;10.202;2022-10-03T19:42:39;96972.69;;;5.56;89.90
73941;BME280;62294;48.554;10.202;2022-10-03T19:45:11;96998.72;;;5.51;89.90
73941;BME280;62294;48.554;10.202;2022-10-03T19:47:46;96991.78;;;5.50;89.67
73941;BME280;62294;48.554;10.202;2022-10-03T19:50:25;97001.81;;;5.39;90.28
73941;BME280;62294;48.554;10.202;2022-10-03T19:52:53;97000.69;;;5.33;89.91
73941;BME280;62294;48.554;10.202;2022-10-03T19:55:29;97004.28;;;5.24;90.48
73941;BME280;62294;48.554;10.202;2022-10-03T20:00:38;96994.72;;;5.23;89.83
73941;BME280;62294;48.554;10.202;2022-10-03T20:03:16;96998.16;;;5.08;90.83
73941;BME280;62294;48.554;10.202;2022-10-03T20:05:59;96999.66;;;5.10;89.83
73941;BME280;62294;48.554;10.202;2022-10-03T20:13:41;96993.03;;;4.98;89.73
73941;BME280;62294;48.554;10.202;2022-10-03T20:16:18;96990.75;;;4.95;90.02
73941;BME280;62294;48.554;10.202;2022-10-03T20:18:48;96994.53;;;4.92;89.69
73941;BME280;62294;48.554;10.202;2022-10-03T20:21:18;96996.50;;;4.90;89.87
73941;BME280;62294;48.554;10.202;2022-10-03T20:23:45;96996.75;;;4.79;89.94
73941;BME280;62294;48.554;10.202;2022-10-03T20:26:35;97004.81;;;4.70;90.22
73941;BME280;62294;48.554;10.202;2022-10-03T20:29:14;97008.06;;;4.64;90.14
73941;BME280;62294;48.554;10.202;2022-10-03T20:31:44;96997.88;;;4.61;90.21
73941;BME280;62294;48.554;10.202;2022-10-03T20:34:20;96994.38;;;4.52;89.49
73941;BME280;62294;48.554;10.202;2022-10-03T20:37:16;96991.25;;;4.57;89.88
73941;BME280;62294;48.554;10.202;2022-10-03T20:39:38;96990.47;;;4.56;90.29
73941;BME280;62294;48.554;10.202;2022-10-03T20:42:21;96997.16;;;4.51;90.39
73941;BME280;62294;48.554;10.202;2022-10-03T20:44:59;96994.19;;;4.46;90.62
73941;BME280;62294;48.554;10.202;2022-10-03T20:52:37;96990.47;;;4.56;89.66
73941;BME280;62294;48.554;10.202;2022-10-03T20:55:05;96990.25;;;4.50;89.24
73941;BME280;62294;48.554;10.202;2022-10-03T20:57:42;96993.16;;;4.39;89.44
73941;BME280;62294;48.554;10.202;2022-10-03T21:00:17;96992.78;;;4.25;90.56
73941;BME280;62294;48.554;10.202;2022-10-03T21:05:26;96985.31;;;4.13;91.61
73941;BME280;62294;48.554;10.202;2022-10-03T21:07:56;96985.16;;;4.14;92.01
73941;BME280;62294;48.554;10.202;2022-10-03T21:10:45;96980.19;;;4.11;91.50
73941;BME280;62294;48.554;10.202;2022-10-03T21:13:34;96981.81;;;4.04;91.59
73941;BME280;62294;48.554;10.202;2022-10-03T21:16:14;96981.13;;;4.02;91.10
73941;BME280;62294;48.554;10.202;2022-10-03T21:18:44;96976.19;;;3.99;90.66
73941;BME280;62294;48.554;10.202;2022-10-03T21:21:17;96967.63;;;3.97;90.40
73941;BME280;62294;48.554;10.202;2022-10-03T21:24:05;96970.91;;;3.99;90.29
73941;BME280;62294;48.554;10.202;2022-10-03T21:26:44;96965.16;;;3.96;90.20
73941;BME280;62294;48.554;10.202;2022-10-03T21:34:56;96951.75;;;3.81;91.31
73941;BME280;62294;48.554;10.202;2022-10-03T21:37:29;96954.84;;;3.77;91.08
73941;BME280;62294;48.554;10.202;2022-10-03T21:43:14;96957.38;;;3.60;91.18
73941;BME280;62294;48.554;10.202;2022-10-03T21:52:13;96947.00;;;3.59;90.63
73941;BME280;62294;48.554;10.202;2022-10-03T21:55:03;96957.03;;;3.55;90.41
73941;BME280;62294;48.554;10.202;2022-10-03T21:58:10;96947.31;;;3.56;90.17
73941;BME280;62294;48.554;10.202;2022-10-03T22:03:22;96955.34;;;3.54;90.09
73941;BME280;62294;48.554;10.202;2022-10-03T22:05:56;96950.56;;;3.50;89.87
73941;BME280;62294;48.554;10.202;2022-10-03T22:08:29;96949.53;;;3.43;90.31
73941;BME280;62294;48.554;10.202;2022-10-03T22:11:18;96941.97;;;3.40;90.52
73941;BME280;62294;48.554;10.202;2022-10-03T22:14:12;96935.50;;;3.34;90.55
73941;BME280;62294;48.554;10.202;2022-10-03T22:17:08;96944.50;;;3.32;90.91
73941;BME280;62294;48.554;10.202;2022-10-03T22:19:50;96943.69;;;3.31;90.92
73941;BME280;62294;48.554;10.202;2022-10-03T22:36:03;96923.06;;;3.19;90.02
73941;BME280;62294;48.554;10.202;2022-10-03T22:38:31;96921.41;;;3.18;89.66
73941;BME280;62294;48.554;10.202;2022-10-03T22:41:04;96918.56;;;3.11;90.00
73941;BME280;62294;48.554;10.202;2022-10-03T22:43:34;96908.16;;;3.02;90.99
73941;BME280;62294;48.554;10.202;2022-10-03T22:46:04;96903.66;;;2.94;90.71
73941;BME280;62294;48.554;10.202;2022-10-03T22:48:35;96898.88;;;2.90;91.50
73941;BME280;62294;48.554;10.202;2022-10-03T22:51:08;96910.94;;;2.82;91.40
73941;BME280;62294;48.554;10.202;2022-10-03T22:53:39;96913.03;;;2.79;91.22
73941;BME280;62294;48.554;10.202;2022-10-03T22:56:33;96909.22;;;2.73;91.24
73941;BME280;62294;48.554;10.202;2022-10-03T22:59:02;96909.22;;;2.73;90.59
73941;BME280;62294;48.554;10.202;2022-10-03T23:01:32;96915.16;;;2.75;91.17
73941;BME280;62294;48.554;10.202;2022-10-03T23:04:00;96907.56;;;2.72;90.38
73941;BME280;62294;48.554;10.202;2022-10-03T23:09:32;96904.47;;;2.77;90.55
73941;BME280;62294;48.554;10.202;2022-10-03T23:12:02;96899.53;;;2.74;90.28
73941;BME280;62294;48.554;10.202;2022-10-03T23:14:35;96905.31;;;2.77;89.95
73941;BME280;62294;48.554;10.202;2022-10-03T23:22:24;96894.72;;;2.69;89.81
73941;BME280;62294;48.554;10.202;2022-10-03T23:24:57;96892.81;;;2.71;89.68
73941;BME280;62294;48.554;10.202;2022-10-03T23:28:22;96889.34;;;2.71;89.55
73941;BME280;62294;48.554;10.202;2022-10-03T23:32:52;96887.06;;;2.58;89.74
73941;BME280;62294;48.554;10.202;2022-10-03T23:37:59;96895.16;;;2.65;89.55
73941;BME280;62294;48.554;10.202;2022-10-03T23:40:43;96901.41;;;2.64;89.87
73941;BME280;62294;48.554;10.202;2022-10-03T23:45:48;96896.91;;;2.56;89.42
73941;BME280;62294;48.554;10.202;2022-10-03T23:48:17;96895.41;;;2.54;90.10
73941;BME280;62294;48.554;10.202;2022-10-03T23:50:48;96886.03;;;2.51;90.00
73941;BME280;62294;48.554;10.202;2022-10-03T23:53:38;96877.78;;;2.46;90.15
